Flight Track Log - Related Links

Times and Time Zones

All times are in EDT time to prevent confusion due to time zone crossing. See the SKW4471 flight status page for this flight to view local times or setup timezone preferences in your user account.

Time Position Orientation Groundspeed Altitude Reporting Facility
EDT Latitude Longitude Course Direction KTS MPH feet Rate Location/Type
Sun 09:56:07 AM 35.0500 -89.9833 353° North 146 168 800  Level KMEM
Sun 09:57:01 AM 35.1000 -89.9833 360° North 176 203 2,200 2,100 Climbing KMEM
Sun 09:58:07 AM 35.1667 -90.0000 348° North 273 314 5,000 2,683 Climbing KMEM
Sun 09:59:00 AM 35.4841 -90.0103 356° North  Level FlightAware Approximate
Sun 09:59:04 AM 35.2500 -90.0167 351° North 305 351 7,700  Level KMEM
Sun 10:00:00 AM 35.5850 -90.0167 North  Level FlightAware Approximate
Sun 10:00:38 AM 35.3803 -90.0233 358° North 337 388 12,100  Level Memphis Center
Sun 10:01:00 AM 35.6951 -90.0279 353° North  Level FlightAware Approximate
Sun 10:01:38 AM 35.4742 -90.0281 358° North 331 381 14,200  Level Memphis Center
Sun 10:02:38 AM 35.5700 -90.0356 356° North 337 388 16,500 1,900 Climbing Memphis Center
Sun 10:03:38 AM 35.6578 -90.0428 356° North 343 395 18,000 1,650 Climbing Memphis Center
Sun 10:04:38 AM 35.7642 -90.0500 357° North 345 397 19,800 1,600 Climbing Memphis Center
Sun 10:05:38 AM 35.8725 -90.0625 355° North 359 413 21,200 1,100 Climbing Memphis Center
Sun 10:06:38 AM 35.9853 -90.0747 355° North 383 441 22,000 900 Climbing Memphis Center
Sun 10:07:38 AM 36.1019 -90.0872 355° North 409 471 23,000 800 Climbing Memphis Center
Sun 10:08:38 AM 36.2250 -90.1228 347° North 426 490 23,600 800 Climbing Memphis Center
Sun 10:09:38 AM 36.3481 -90.1664 344° North 443 510 24,600 950 Climbing Memphis Center
Sun 10:10:38 AM 36.4711 -90.2072 345° North 456 525 25,500 800 Climbing Memphis Center
Sun 10:11:38 AM 36.5983 -90.2508 345° North 461 531 26,200 650 Climbing Memphis Center
Sun 10:12:38 AM 36.7297 -90.2922 346° North 467 537 26,800 750 Climbing Memphis Center
Sun 10:14:18 AM 36.9428 -90.3628 345° North 490 564 28,200 736 Climbing Kansas City Center
Sun 10:15:21 AM 37.0764 -90.4072 345° North 494 568 28,800 829 Climbing Kansas City Center
Sun 10:16:21 AM 37.2100 -90.4533 345° North 495 570 29,900 893 Climbing Kansas City Center
Sun 10:17:22 AM 37.3417 -90.4981 345° North 491 565 30,600 744 Climbing Kansas City Center
Sun 10:18:22 AM 37.4689 -90.5408 345° North 490 564 31,400 677 Climbing Kansas City Center
Sun 10:19:26 AM 37.6003 -90.5875 344° North 491 565 32,000 288 Climbing Kansas City Center
Sun 10:20:27 AM 37.7350 -90.6328 345° North 494 568 32,000  Level Kansas City Center
Sun 10:21:28 AM 37.8728 -90.6814 344° North 503 579 32,000  Level Kansas City Center
Sun 10:22:29 AM 38.0422 -90.7403 345° North 515 593 32,000  Level Kansas City Center
Sun 10:23:31 AM 38.1844 -90.7903 345° North 522 601 32,000  Level Kansas City Center
Sun 10:24:31 AM 38.3247 -90.8394 345° North 522 601 32,000  Level Kansas City Center
Sun 10:25:35 AM 38.4658 -90.8761 349° North 519 597 32,000  Level Kansas City Center
Sun 10:26:36 AM 38.6086 -90.8789 359° North 509 586 32,000  Level Kansas City Center
Sun 10:27:36 AM 38.7514 -90.8839 358° North 507 583 32,000 -443 Level Kansas City Center
Sun 10:28:38 AM 38.8867 -90.8497 11° North 495 570 31,100 -492 Descending Kansas City Center
Sun 10:29:38 AM 39.0142 -90.7819 22° Northeast 492 566 31,000 -49 Descending Kansas City Center
Sun 10:30:41 AM 39.1389 -90.7156 22° Northeast 485 558 31,000  Level Kansas City Center
Sun 10:31:42 AM 39.2625 -90.6481 23° Northeast 481 554 31,000  Level Kansas City Center
Sun 10:32:42 AM 39.3839 -90.5822 23° Northeast 475 547 31,000  Level Kansas City Center
Sun 10:33:46 AM 39.5053 -90.5164 23° Northeast 472 543 31,000  Level Kansas City Center
Sun 10:34:46 AM 39.6497 -90.4378 23° Northeast 470 541 31,000  Level Kansas City Center
Sun 10:35:48 AM 39.7514 -90.3814 23° Northeast 469 540 31,000  Level Kansas City Center
Sun 10:36:48 AM 39.8956 -90.3011 23° Northeast 469 540 31,000  Level Kansas City Center
Sun 10:37:52 AM 40.0153 -90.2353 23° Northeast 467 537 31,000  Level Kansas City Center
Sun 10:38:53 AM 40.1333 -90.1694 23° Northeast 464 534 31,000 -197 Level Kansas City Center
Sun 10:39:54 AM 40.2533 -90.1028 23° Northeast 466 536 30,600 -694 Descending Kansas City Center
Sun 10:40:54 AM 40.3764 -90.0336 23° Northeast 478 550 29,600 -1,011 Descending Kansas City Center
Sun 10:41:29 AM 40.4508 -89.9914 23° Northeast 486 559 29,000 -990 Descending Chicago Center
Sun 10:42:31 AM 40.5817 -89.9181 23° Northeast 487 560 28,000 -968 Descending Chicago Center
Sun 10:43:33 AM 40.7042 -89.8481 23° Northeast 484 557 27,000 -871 Descending Chicago Center
Sun 10:44:35 AM 40.8261 -89.7803 23° Northeast 479 551 26,200 -774 Descending Chicago Center
Sun 10:45:37 AM 40.9436 -89.7128 23° Northeast 464 534 25,400 -871 Descending Chicago Center
Sun 10:46:39 AM 41.0731 -89.6383 23° Northeast 473 544 24,400 -823 Descending Chicago Center
Sun 10:47:41 AM 41.1803 -89.5411 34° Northeast 473 544 23,700 -1,452 Descending Chicago Center
Sun 10:48:43 AM 41.2411 -89.3903 62° Northeast 463 533 21,400 -2,488 Descending Chicago Center
Sun 10:49:44 AM 41.3114 -89.2144 62° Northeast 449 517 18,600 -2,293 Descending Chicago Center
Sun 10:50:46 AM 41.3597 -89.0894 63° Northeast 428 493 16,700 -2,032 Descending Chicago Center
Sun 10:51:48 AM 41.4125 -88.9583 62° Northeast 406 467 14,400 -2,274 Descending Chicago Center
Sun 10:52:50 AM 41.4725 -88.8072 62° Northeast 389 448 12,000 -1,694 Descending Chicago Center
Sun 10:53:52 AM 41.5222 -88.6825 62° Northeast 382 440 10,900 -484 Descending Chicago Center
Sun 10:54:54 AM 41.5731 -88.5797 57° Northeast 341 392 11,000 -145 Climbing Chicago Center
Sun 10:55:56 AM 41.6419 -88.5125 36° Northeast 303 349 10,600 -1,306 Descending Chicago Center
Sun 10:56:58 AM 41.7014 -88.4344 44° Northeast 299 344 8,300 -1,790 Descending Chicago Center
Sun 10:58:00 AM 41.7581 -88.3589 45° Northeast 288 331 6,900 -871 Descending Chicago Center
Sun 10:59:02 AM 41.8431 -88.2958 29° Northeast 299 344 6,500 -1,306 Descending Chicago Center
Sun 11:00:04 AM 41.9125 -88.2525 25° Northeast 277 319 4,200 -1,258 Descending Chicago Center
Sun 11:01:06 AM 41.9558 -88.1728 54° Northeast 273 314 3,900 -290 Descending Chicago Center

Login

Don't have an account? Register now (free) for customized features, flight alerts, and more!